Catarman, Philippines
Current Conditions -  °F | °C
As of 1:00 PM on Sunday 26 Oct 2014 (Local Time) from RPVM Reporting Station
Broken Clouds Broken Clouds  
Wind Chill: 88°   Ceiling: 30000
Heat Index: 98°   Visibility: 6mi
Dew Point: 75°   Wind: 9mph
Humidity: 66%   Direction: 30°NNE
Pressure: 29.83"   Gusts: NA
Location:  12.5°N, 124.64°E
Report Text: RPVM 260500Z 03008KT 9999 SCT018CB BKN300 31/24 Q1010 RMK A2983 CB SSW AND N
Loading
Personal Weather Stations






























Interactive Weather Map
Tropical Storm Tracking
New forecast layout! Learn more

10-Day Weather Forecast

Advertisements
Track Severe Weather on mobile